Time;durP1;ratioP1;P1;durP2;ratioP2;P2;SDS_P1;SDS_P2;PMS_P1;PMS_P2;Temp;Humidity;BMP_temperature;BMP_pressure;BME280_temperature;BME280_humidity;BME280_pressure;Samples;Min_cycle;Max_cycle;Signal;HPM_P1;HPM_P2
2022/03/29 00:00:12;;;;;;;9.95;8.20;;;21.80;64.50;;;;;;6103503;28;88366;-69
2022/03/29 00:03:15;;;;;;;8.85;7.97;;;21.90;64.70;;;;;;6103782;28;87940;-69
2022/03/29 00:06:17;;;;;;;8.80;7.80;;;21.90;64.60;;;;;;6108089;28;89361;-68
2022/03/29 00:09:19;;;;;;;8.57;7.78;;;21.90;64.60;;;;;;6116285;28;90053;-69
2022/03/29 00:12:21;;;;;;;8.98;8.02;;;21.90;64.60;;;;;;6116187;28;89130;-69
2022/03/29 00:15:24;;;;;;;9.38;8.48;;;21.90;64.70;;;;;;6115354;28;89105;-68
2022/03/29 00:18:28;;;;;;;8.82;7.93;;;21.80;64.60;;;;;;6114946;28;89763;-68
2022/03/29 00:21:30;;;;;;;8.88;8.07;;;21.80;64.60;;;;;;6112171;28;89419;-68
2022/03/29 00:24:32;;;;;;;8.38;7.60;;;21.80;64.50;;;;;;6111018;28;87318;-69
2022/03/29 00:27:35;;;;;;;9.57;7.85;;;21.80;64.50;;;;;;6111733;28;89106;-69
2022/03/29 00:30:37;;;;;;;8.88;8.07;;;21.80;64.50;;;;;;6112923;28;88413;-69
2022/03/29 00:33:40;;;;;;;8.65;7.78;;;21.80;64.50;;;;;;6112268;28;88106;-70
2022/03/29 00:36:42;;;;;;;9.10;8.30;;;21.80;64.50;;;;;;6112088;28;89535;-69
2022/03/29 00:39:44;;;;;;;8.77;7.88;;;21.80;64.50;;;;;;6110418;28;90049;-70
2022/03/29 00:42:47;;;;;;;9.00;8.20;;;21.80;64.50;;;;;;6111090;28;89108;-69
2022/03/29 00:45:49;;;;;;;7.95;7.25;;;21.80;64.50;;;;;;6112932;28;89388;-69
2022/03/29 00:48:52;;;;;;;8.57;7.78;;;21.80;65.10;;;;;;6111684;28;89072;-69
2022/03/29 00:51:55;;;;;;;8.63;7.82;;;21.80;64.50;;;;;;6094898;28;89045;-69
2022/03/29 00:54:57;;;;;;;8.43;7.63;;;21.80;64.50;;;;;;6106877;28;89003;-69
2022/03/29 00:58:01;;;;;;;8.38;7.57;;;21.80;64.50;;;;;;6110000;28;89129;-69
2022/03/29 01:01:04;;;;;;;8.48;7.63;;;21.80;64.50;;;;;;6109280;28;88336;-70
2022/03/29 01:04:08;;;;;;;8.65;7.85;;;21.80;64.40;;;;;;6112791;28;89249;-69
2022/03/29 01:07:10;;;;;;;8.60;7.78;;;21.80;64.50;;;;;;6090824;28;89258;-67
2022/03/29 01:10:12;;;;;;;8.30;7.50;;;21.80;64.50;;;;;;6108054;28;90379;-69
2022/03/29 01:13:15;;;;;;;8.07;7.28;;;21.80;64.60;;;;;;6111609;28;89117;-69
2022/03/29 01:19:39;;;;;;;8.75;7.85;;;21.80;64.60;;;;;;6110764;28;87356;-70
2022/03/29 01:22:44;;;;;;;8.40;7.45;;;21.80;64.50;;;;;;6110497;28;87990;-69
2022/03/29 01:25:47;;;;;;;8.38;7.63;;;21.80;64.50;;;;;;6106091;28;89254;-70
2022/03/29 01:28:49;;;;;;;8.27;7.28;;;21.80;64.50;;;;;;6104135;28;89117;-69
2022/03/29 01:31:53;;;;;;;8.27;7.47;;;21.80;64.50;;;;;;6104390;28;87674;-69
2022/03/29 01:34:55;;;;;;;8.52;7.72;;;21.80;64.40;;;;;;6108804;28;89112;-69
2022/03/29 01:37:58;;;;;;;7.72;7.03;;;21.80;64.40;;;;;;6110163;28;89792;-69
2022/03/29 01:41:02;;;;;;;7.50;6.80;;;21.70;64.40;;;;;;6109812;28;89919;-70
2022/03/29 01:44:05;;;;;;;7.90;7.10;;;21.70;64.30;;;;;;6098788;28;89183;-69
2022/03/29 01:47:09;;;;;;;8.02;7.22;;;21.80;64.40;;;;;;6109500;28;89233;-69
2022/03/29 01:50:12;;;;;;;8.52;7.25;;;21.70;64.30;;;;;;6097680;28;89094;-69
2022/03/29 01:53:23;;;;;;;7.90;7.20;;;21.70;64.30;;;;;;6110866;28;88997;-69
2022/03/29 01:56:28;;;;;;;7.55;6.85;;;21.70;64.40;;;;;;6102020;28;89216;-69
2022/03/29 02:00:30;;;;;;;7.72;7.03;;;21.70;64.20;;;;;;6093378;28;89391;-69
2022/03/29 02:02:53;;;;;;;7.95;7.15;;;21.80;64.30;;;;;;6109325;28;88041;-69
2022/03/29 02:05:55;;;;;;;7.20;6.50;;;21.70;64.20;;;;;;6108232;28;89389;-70
2022/03/29 02:09:00;;;;;;;7.70;7.00;;;21.70;64.20;;;;;;6106891;28;88996;-69
2022/03/29 02:12:03;;;;;;;7.47;6.78;;;21.70;64.20;;;;;;6108421;28;89982;-69
2022/03/29 02:15:06;;;;;;;7.45;6.75;;;21.80;64.20;;;;;;6110155;28;89246;-69
2022/03/29 02:18:09;;;;;;;7.57;6.88;;;21.80;64.20;;;;;;6110879;28;89254;-69
2022/03/29 02:21:14;;;;;;;7.72;7.03;;;21.70;64.20;;;;;;6096470;28;89374;-69
2022/03/29 02:24:17;;;;;;;7.90;7.10;;;21.80;64.20;;;;;;6109829;28;89025;-69
2022/03/29 02:27:19;;;;;;;7.10;6.35;;;21.70;64.10;;;;;;6108570;28;89441;-69
2022/03/29 02:30:21;;;;;;;7.60;6.80;;;21.70;64.10;;;;;;6111026;28;89178;-69
2022/03/29 02:33:23;;;;;;;7.50;6.75;;;21.70;64.10;;;;;;6111455;28;88644;-69
2022/03/29 02:36:25;;;;;;;7.53;6.82;;;21.70;64.10;;;;;;6108867;28;88985;-69
2022/03/29 02:39:28;;;;;;;7.82;7.00;;;21.70;64.10;;;;;;6096417;28;89116;-69
2022/03/29 02:42:30;;;;;;;7.28;6.57;;;21.70;64.10;;;;;;6108720;28;90120;-69
2022/03/29 02:45:32;;;;;;;7.93;7.22;;;21.70;64.10;;;;;;6096150;28;87644;-69
2022/03/29 02:48:34;;;;;;;7.38;6.70;;;21.70;64.30;;;;;;6108540;28;89132;-69
2022/03/29 02:51:36;;;;;;;7.53;6.60;;;21.70;64.10;;;;;;6110510;28;89096;-69
2022/03/29 02:54:39;;;;;;;7.45;6.80;;;21.70;64.10;;;;;;6090980;28;89056;-69
2022/03/29 02:58:00;;;;;;;7.50;6.80;;;21.70;64.00;;;;;;6107013;28;89091;-69
2022/03/29 03:01:02;;;;;;;7.28;6.68;;;21.70;64.10;;;;;;6098486;28;89506;-69
2022/03/29 03:04:05;;;;;;;7.60;6.70;;;21.70;64.00;;;;;;6108903;28;88283;-69
2022/03/29 03:07:07;;;;;;;7.00;6.40;;;21.70;64.00;;;;;;6107608;28;89481;-69
2022/03/29 03:10:11;;;;;;;7.57;6.72;;;21.70;64.00;;;;;;6109825;28;89118;-69
2022/03/29 03:13:13;;;;;;;7.38;6.68;;;21.70;64.00;;;;;;6107792;28;90024;-68
2022/03/29 03:16:15;;;;;;;7.03;6.35;;;21.70;64.00;;;;;;6106163;28;89432;-68
2022/03/29 03:19:18;;;;;;;7.07;6.47;;;21.70;64.00;;;;;;6108843;28;89353;-69
2022/03/29 03:22:20;;;;;;;7.30;6.60;;;21.70;64.00;;;;;;6100870;28;89028;-68
2022/03/29 03:25:23;;;;;;;6.88;6.28;;;21.70;63.90;;;;;;6095985;28;89324;-69
2022/03/29 03:28:25;;;;;;;6.90;6.30;;;21.70;64.00;;;;;;6100007;28;89113;-68
2022/03/29 03:31:27;;;;;;;7.30;6.53;;;21.70;63.90;;;;;;6108040;28;89120;-69
2022/03/29 03:34:30;;;;;;;7.22;6.55;;;21.70;63.90;;;;;;6107703;28;88338;-69
2022/03/29 03:37:33;;;;;;;7.00;6.40;;;21.70;63.80;;;;;;6108103;28;89354;-69
2022/03/29 03:40:36;;;;;;;6.88;6.28;;;21.60;63.80;;;;;;6110139;28;89031;-69
2022/03/29 03:43:38;;;;;;;7.13;6.40;;;21.70;63.80;;;;;;6107439;28;90425;-69
2022/03/29 03:46:40;;;;;;;7.25;6.65;;;21.70;63.90;;;;;;6097947;28;89356;-69
2022/03/29 03:49:42;;;;;;;6.82;6.20;;;21.70;63.90;;;;;;6108467;28;88059;-69
2022/03/29 03:52:44;;;;;;;7.47;6.78;;;21.70;63.90;;;;;;6109257;28;88024;-68
2022/03/29 03:55:48;;;;;;;7.03;6.43;;;21.60;63.80;;;;;;6109749;28;89133;-69
2022/03/29 03:58:49;;;;;;;7.10;6.50;;;21.60;63.80;;;;;;6101245;28;89132;-69
2022/03/29 04:01:51;;;;;;;6.70;6.10;;;21.60;63.80;;;;;;6110131;28;89391;-69
2022/03/29 04:04:54;;;;;;;7.07;6.38;;;21.60;63.80;;;;;;6111186;28;88328;-68
2022/03/29 04:07:55;;;;;;;6.90;6.30;;;21.70;63.90;;;;;;6112565;28;89376;-69
2022/03/29 04:10:59;;;;;;;6.88;6.18;;;21.60;64.70;;;;;;6113089;28;89092;-69
2022/03/29 04:14:01;;;;;;;7.68;6.15;;;21.60;63.80;;;;;;6105907;28;90311;-69
2022/03/29 04:17:03;;;;;;;7.72;7.03;;;21.60;63.80;;;;;;6110641;28;88980;-69
2022/03/29 04:20:06;;;;;;;7.22;6.53;;;21.60;63.80;;;;;;6111634;28;89160;-69
2022/03/29 04:23:08;;;;;;;6.75;6.13;;;21.60;63.70;;;;;;6112931;28;89083;-69
2022/03/29 04:26:12;;;;;;;6.60;6.00;;;21.60;63.80;;;;;;6100246;28;89386;-70
2022/03/29 04:29:14;;;;;;;7.03;6.38;;;21.60;63.70;;;;;;6109916;28;89030;-68
2022/03/29 04:32:16;;;;;;;6.68;6.07;;;21.60;63.70;;;;;;6112163;28;89067;-68
2022/03/29 04:35:18;;;;;;;6.70;6.00;;;21.60;63.80;;;;;;6111717;28;88722;-69
2022/03/29 04:38:20;;;;;;;6.90;6.30;;;21.60;63.70;;;;;;6110515;28;89235;-69
2022/03/29 04:41:24;;;;;;;7.03;6.43;;;21.60;63.80;;;;;;6110351;28;89218;-68
2022/03/29 04:44:26;;;;;;;7.00;6.20;;;21.60;63.70;;;;;;6110706;28;90051;-68
2022/03/29 04:47:28;;;;;;;6.47;5.97;;;21.60;63.70;;;;;;6111062;28;89358;-68
2022/03/29 04:50:30;;;;;;;6.82;6.22;;;21.60;63.60;;;;;;6109780;28;89122;-68
2022/03/29 04:53:32;;;;;;;7.03;6.28;;;21.60;63.70;;;;;;6112036;28;89271;-68
2022/03/29 04:56:36;;;;;;;6.70;6.10;;;21.60;63.60;;;;;;6110418;28;89044;-69
2022/03/29 04:59:38;;;;;;;6.93;6.32;;;21.60;63.70;;;;;;6096442;28;89159;-69
2022/03/29 05:02:40;;;;;;;7.50;6.80;;;21.60;65.20;;;;;;6099111;28;89099;-67
2022/03/29 05:05:42;;;;;;;7.43;6.72;;;21.70;66.70;;;;;;6099293;28;88373;-69
2022/03/29 05:08:44;;;;;;;7.82;7.13;;;21.80;65.70;;;;;;6099313;28;89269;-69
2022/03/29 05:11:47;;;;;;;7.80;7.10;;;21.80;64.90;;;;;;6095263;28;89373;-69
2022/03/29 05:14:49;;;;;;;7.57;6.88;;;21.80;64.60;;;;;;6105549;28;89905;-69
2022/03/29 05:17:51;;;;;;;7.10;6.50;;;21.80;64.50;;;;;;6099172;28;89324;-68
2022/03/29 05:20:53;;;;;;;7.72;7.03;;;21.80;64.70;;;;;;6097734;28;89066;-69
2022/03/29 05:23:55;;;;;;;7.32;6.72;;;21.80;64.70;;;;;;6097538;28;89294;-70
2022/03/29 05:27:01;;;;;;;7.32;6.63;;;21.80;64.70;;;;;;6112423;28;87984;-67
2022/03/29 05:30:04;;;;;;;7.90;7.10;;;21.80;64.90;;;;;;6098149;28;89524;-69
2022/03/29 05:33:06;;;;;;;7.60;6.90;;;21.80;65.00;;;;;;6093042;28;88978;-69
2022/03/29 05:36:08;;;;;;;7.22;6.53;;;21.80;64.50;;;;;;6095511;28;88359;-68
2022/03/29 05:39:10;;;;;;;7.20;6.50;;;21.80;64.30;;;;;;6107265;28;89181;-69
2022/03/29 05:42:13;;;;;;;7.40;6.80;;;21.80;64.20;;;;;;6105870;28;88995;-69
2022/03/29 05:45:15;;;;;;;7.10;6.50;;;21.80;64.20;;;;;;6093521;28;90143;-69
2022/03/29 05:51:36;;;;;;;7.28;6.68;;;21.80;64.10;;;;;;6103790;28;87330;-69
2022/03/29 05:54:39;;;;;;;7.38;6.68;;;21.80;64.00;;;;;;6110820;28;89188;-68
2022/03/29 05:57:43;;;;;;;7.85;6.85;;;21.70;63.90;;;;;;6106895;28;89091;-69
2022/03/29 06:00:45;;;;;;;7.40;6.70;;;21.70;64.00;;;;;;6098208;28;87959;-68
2022/03/29 06:03:47;;;;;;;7.15;6.55;;;21.70;63.80;;;;;;6097551;28;89101;-68
2022/03/29 06:07:08;;;;;;;7.82;7.03;;;21.70;64.80;;;;;;6108406;28;88363;-68
2022/03/29 06:10:11;;;;;;;6.90;6.30;;;21.70;64.00;;;;;;6084554;28;89613;-68
2022/03/29 06:13:33;;;;;;;7.15;6.50;;;21.70;64.90;;;;;;6096869;28;89105;-69
2022/03/29 06:16:35;;;;;;;7.20;6.60;;;21.70;64.00;;;;;;6084874;28;88908;-68
2022/03/29 06:19:37;;;;;;;7.05;6.40;;;21.70;64.00;;;;;;6107705;28;89338;-68
2022/03/29 06:22:42;;;;;;;7.18;6.45;;;21.70;64.00;;;;;;6110140;28;89149;-68
2022/03/29 06:25:46;;;;;;;7.07;6.38;;;21.70;64.10;;;;;;6101289;28;88958;-68
2022/03/29 06:28:49;;;;;;;7.15;6.55;;;21.60;64.00;;;;;;6104875;28;88144;-68
2022/03/29 06:31:51;;;;;;;6.72;6.13;;;21.60;64.00;;;;;;6110481;28;88957;-68
2022/03/29 06:34:53;;;;;;;7.13;6.43;;;21.70;64.10;;;;;;6108315;28;89142;-68
2022/03/29 06:37:58;;;;;;;7.10;6.50;;;21.70;64.20;;;;;;6104736;28;88471;-68
2022/03/29 06:41:00;;;;;;;6.90;6.30;;;21.60;64.10;;;;;;6108271;28;89121;-69
2022/03/29 06:44:05;;;;;;;6.45;5.95;;;21.70;64.30;;;;;;6108735;28;88464;-68
2022/03/29 06:47:07;;;;;;;7.47;6.55;;;21.60;64.20;;;;;;6108229;28;90802;-68
2022/03/29 06:50:11;;;;;;;6.82;6.22;;;21.60;64.20;;;;;;6108213;28;89432;-68
2022/03/29 06:53:13;;;;;;;6.38;5.78;;;21.60;64.10;;;;;;6109345;28;89236;-68
2022/03/29 06:56:16;;;;;;;6.80;6.20;;;21.70;64.20;;;;;;6091744;28;89053;-68
2022/03/29 06:59:20;;;;;;;6.43;5.82;;;21.70;64.20;;;;;;6107432;28;87874;-68
2022/03/29 07:02:22;;;;;;;6.78;6.18;;;21.70;64.20;;;;;;6108548;28;89107;-68
2022/03/29 07:05:24;;;;;;;6.60;6.00;;;21.70;64.10;;;;;;6107432;28;89457;-69
2022/03/29 07:08:26;;;;;;;6.93;6.15;;;21.70;64.20;;;;;;6110035;28;87467;-69
2022/03/29 07:11:27;;;;;;;6.60;5.90;;;21.70;64.20;;;;;;6107745;28;89363;-68
2022/03/29 07:14:30;;;;;;;6.78;6.18;;;21.60;64.20;;;;;;6106796;28;89200;-68
2022/03/29 07:17:33;;;;;;;6.72;5.97;;;21.70;64.30;;;;;;6095792;28;89000;-71
2022/03/29 07:20:37;;;;;;;6.90;6.30;;;21.60;64.20;;;;;;6108010;28;88217;-70
2022/03/29 07:23:41;;;;;;;6.63;6.03;;;21.70;64.40;;;;;;6097594;28;88231;-72
2022/03/29 07:26:43;;;;;;;7.20;6.18;;;21.70;64.40;;;;;;6107126;28;88476;-70
2022/03/29 07:29:46;;;;;;;8.68;6.53;;;21.70;64.40;;;;;;6107224;28;89124;-70
2022/03/29 07:32:51;;;;;;;8.15;6.00;;;21.60;64.40;;;;;;6100783;28;89231;-70
2022/03/29 07:35:53;;;;;;;6.70;6.00;;;21.60;64.50;;;;;;6093826;28;89394;-69
2022/03/29 07:38:55;;;;;;;7.90;6.10;;;21.60;64.50;;;;;;6107748;28;88337;-70
2022/03/29 07:41:56;;;;;;;7.53;5.90;;;21.70;64.60;;;;;;6103727;28;89109;-70
2022/03/29 07:45:00;;;;;;;7.03;6.03;;;21.60;64.50;;;;;;6104936;28;89330;-69
2022/03/29 07:48:03;;;;;;;7.10;5.85;;;21.60;64.50;;;;;;6108271;28;89954;-69
2022/03/29 07:51:05;;;;;;;6.68;5.95;;;21.70;64.70;;;;;;6112940;28;88991;-69
2022/03/29 07:54:07;;;;;;;6.43;5.60;;;21.70;64.70;;;;;;6112147;28;89018;-69
2022/03/29 07:57:10;;;;;;;6.95;6.25;;;21.70;65.50;;;;;;6104191;28;88998;-69
2022/03/29 08:00:33;;;;;;;6.65;6.05;;;21.70;64.70;;;;;;6098721;28;89082;-70
2022/03/29 08:03:36;;;;;;;7.22;5.80;;;21.70;64.70;;;;;;6100168;28;87956;-69
2022/03/29 08:06:37;;;;;;;5.72;5.22;;;21.70;64.70;;;;;;6102019;28;89148;-70
2022/03/29 08:09:39;;;;;;;6.93;5.78;;;21.70;64.70;;;;;;6111549;28;88620;-69
2022/03/29 08:12:42;;;;;;;6.70;6.00;;;21.70;64.70;;;;;;6105630;28;89096;-69
2022/03/29 08:15:47;;;;;;;6.65;6.00;;;21.70;64.80;;;;;;6105259;28;89161;-69
2022/03/29 08:18:49;;;;;;;6.20;5.70;;;21.70;64.90;;;;;;6110399;28;89182;-70
2022/03/29 08:21:52;;;;;;;6.38;5.78;;;21.70;64.90;;;;;;6113057;28;89258;-69
2022/03/29 08:24:54;;;;;;;7.05;5.53;;;21.70;64.90;;;;;;6113148;28;88860;-70
2022/03/29 08:27:56;;;;;;;6.30;5.70;;;21.70;65.00;;;;;;6110954;28;88941;-69
2022/03/29 08:31:00;;;;;;;6.20;5.60;;;21.70;65.00;;;;;;6113375;28;87982;-69
2022/03/29 08:34:02;;;;;;;6.50;5.68;;;21.70;65.00;;;;;;6095659;28;89077;-69
2022/03/29 08:37:04;;;;;;;6.00;5.50;;;21.70;65.00;;;;;;6086989;28;89095;-69
2022/03/29 08:40:09;;;;;;;6.32;5.72;;;21.70;65.10;;;;;;6110011;28;88719;-69
2022/03/29 08:43:12;;;;;;;5.90;5.30;;;21.70;65.20;;;;;;6089186;28;89532;-69
2022/03/29 08:46:15;;;;;;;5.90;5.18;;;21.70;65.20;;;;;;6107419;28;88983;-69
2022/03/29 08:49:20;;;;;;;5.95;5.45;;;21.70;65.30;;;;;;6109781;28;90307;-68
2022/03/29 08:52:22;;;;;;;5.97;5.40;;;21.70;65.30;;;;;;6110098;28;88032;-69
2022/03/29 08:55:25;;;;;;;5.90;5.40;;;21.70;65.40;;;;;;6110614;28;89050;-69
2022/03/29 08:58:27;;;;;;;5.88;5.35;;;21.70;65.50;;;;;;6104479;28;88768;-69
2022/03/29 09:01:31;;;;;;;6.78;5.97;;;21.70;65.40;;;;;;6106543;28;89134;-69
2022/03/29 09:04:33;;;;;;;5.93;5.38;;;21.70;65.40;;;;;;6111189;28;89358;-69
2022/03/29 09:07:51;;;;;;;6.13;5.53;;;21.70;65.40;;;;;;6097184;28;87200;-69
2022/03/29 09:10:53;;;;;;;7.70;5.88;;;21.70;65.50;;;;;;6106027;28;88650;-69
2022/03/29 09:14:05;;;;;;;5.78;5.22;;;21.70;65.50;;;;;;6104108;28;88469;-69
2022/03/29 09:17:26;;;;;;;6.47;5.88;;;21.70;65.50;;;;;;6110807;28;87987;-69
2022/03/29 09:20:28;;;;;;;6.00;5.50;;;21.70;65.50;;;;;;6109235;28;90089;-70
2022/03/29 09:23:30;;;;;;;5.72;5.22;;;21.70;65.50;;;;;;6095695;28;87986;-69
2022/03/29 09:26:32;;;;;;;5.60;5.18;;;21.70;65.50;;;;;;6104797;28;89359;-70
2022/03/29 09:29:34;;;;;;;5.40;4.90;;;21.80;65.70;;;;;;6100731;28;89655;-69
2022/03/29 09:32:52;;;;;;;5.70;5.20;;;21.80;65.70;;;;;;6111269;28;89210;-70
2022/03/29 09:36:02;;;;;;;5.47;5.00;;;21.70;65.60;;;;;;6109209;28;89065;-68
2022/03/29 09:39:05;;;;;;;5.50;4.80;;;21.70;65.70;;;;;;6094629;28;89210;-69
2022/03/29 09:42:12;;;;;;;6.63;5.22;;;21.70;65.90;;;;;;6097405;28;89587;-69
2022/03/29 09:45:13;;;;;;;5.70;5.20;;;21.80;66.10;;;;;;6109393;28;89120;-69
2022/03/29 09:48:29;;;;;;;5.50;4.90;;;21.80;66.10;;;;;;6103815;28;89105;-70
2022/03/29 09:51:32;;;;;;;6.93;4.82;;;21.80;66.20;;;;;;6104437;28;90014;-70
2022/03/29 09:54:34;;;;;;;5.88;5.25;;;21.80;66.10;;;;;;6110108;28;89072;-69
2022/03/29 09:57:37;;;;;;;6.25;5.20;;;21.80;66.10;;;;;;6105365;28;89386;-70
2022/03/29 10:00:39;;;;;;;5.15;4.72;;;21.80;66.10;;;;;;6098643;28;90999;-69
2022/03/29 10:03:44;;;;;;;6.15;5.55;;;21.80;66.10;;;;;;6099350;28;90579;-69
2022/03/29 10:06:48;;;;;;;4.90;4.50;;;21.70;66.00;;;;;;6108923;28;89185;-70
2022/03/29 10:09:50;;;;;;;5.43;4.93;;;21.70;66.00;;;;;;6110188;28;89073;-70
2022/03/29 10:12:52;;;;;;;6.30;5.03;;;21.80;66.10;;;;;;6102390;28;88428;-70
2022/03/29 10:15:55;;;;;;;5.45;4.95;;;21.80;66.10;;;;;;6105246;28;88292;-69
2022/03/29 10:18:59;;;;;;;5.28;4.80;;;21.80;66.10;;;;;;6104365;28;88325;-70
2022/03/29 10:22:02;;;;;;;5.40;4.90;;;21.70;66.10;;;;;;6108922;28;89010;-70
2022/03/29 10:25:05;;;;;;;5.32;4.82;;;21.80;66.10;;;;;;6109865;28;88995;-70
2022/03/29 10:28:08;;;;;;;5.32;4.93;;;21.80;66.10;;;;;;6108492;28;89114;-69
2022/03/29 10:31:28;;;;;;;5.30;4.90;;;21.80;66.10;;;;;;6109359;28;89407;-70
2022/03/29 10:34:51;;;;;;;5.50;5.00;;;21.80;66.00;;;;;;6109281;28;89078;-69
2022/03/29 10:37:55;;;;;;;5.32;4.82;;;21.80;66.00;;;;;;6110156;28;89124;-69
2022/03/29 10:40:57;;;;;;;5.25;4.85;;;21.80;66.10;;;;;;6107033;28;88915;-69
2022/03/29 10:44:01;;;;;;;5.03;4.63;;;21.80;66.10;;;;;;6108736;28;87269;-69
2022/03/29 10:47:23;;;;;;;5.50;5.00;;;21.80;66.00;;;;;;6097808;28;88987;-69
2022/03/29 10:50:55;;;;;;;6.47;4.90;;;21.80;66.10;;;;;;6099170;28;89189;-70
2022/03/29 10:54:27;;;;;;;4.88;4.47;;;21.80;66.10;;;;;;6108145;28;90336;-69
2022/03/29 10:57:31;;;;;;;5.28;4.78;;;21.80;66.10;;;;;;6096485;28;89337;-69
2022/03/29 11:00:33;;;;;;;5.40;4.90;;;21.80;66.10;;;;;;6109098;28;89207;-69
2022/03/29 11:03:36;;;;;;;5.63;4.85;;;21.80;66.10;;;;;;6107512;28;89555;-69
2022/03/29 11:07:09;;;;;;;5.93;5.43;;;21.80;66.10;;;;;;6097232;28;89086;-69
2022/03/29 11:10:19;;;;;;;5.53;5.03;;;21.80;66.10;;;;;;6087467;28;89179;-70
2022/03/29 11:13:25;;;;;;;6.55;4.85;;;21.80;66.10;;;;;;6086890;28;89340;-70
2022/03/29 11:16:31;;;;;;;5.40;4.90;;;21.80;66.60;;;;;;6092367;28;88350;-71
2022/03/29 11:19:40;;;;;;;13.45;11.13;;;21.80;66.70;;;;;;6104253;28;88101;-66
2022/03/29 11:22:46;;;;;;;67.65;25.15;;;21.80;69.00;;;;;;6098663;28;89087;-68
2022/03/29 11:25:50;;;;;;;317.13;194.82;;;21.90;73.70;;;;;;6093581;28;90048;-70
2022/03/29 11:28:54;;;;;;;92.38;53.88;;;22.00;77.70;;;;;;6099606;28;88914;-69
2022/03/29 11:31:57;;;;;;;65.70;39.42;;;22.10;72.30;;;;;;6097809;28;87988;-69
2022/03/29 11:35:00;;;;;;;50.50;31.55;;;22.30;70.90;;;;;;6102448;28;89094;-69
2022/03/29 11:38:11;;;;;;;53.22;30.00;;;22.40;69.80;;;;;;6106898;28;89071;-70
2022/03/29 11:41:24;;;;;;;44.45;28.35;;;22.50;69.10;;;;;;6105143;28;89109;-68
2022/03/29 11:44:27;;;;;;;44.75;26.60;;;22.50;68.90;;;;;;6102107;28;89471;-69
2022/03/29 11:47:52;;;;;;;36.90;22.88;;;22.60;70.60;;;;;;6095913;28;88340;-69
2022/03/29 11:50:56;;;;;;;34.05;21.25;;;22.50;69.00;;;;;;6095588;28;89134;-68
2022/03/29 11:54:00;;;;;;;29.45;19.52;;;22.50;69.10;;;;;;6108383;28;89120;-68
2022/03/29 11:57:17;;;;;;;29.52;17.95;;;22.40;68.70;;;;;;6105835;28;89961;-68
2022/03/29 12:00:24;;;;;;;26.70;16.45;;;22.40;68.60;;;;;;6082954;28;88934;-69
2022/03/29 12:03:32;;;;;;;25.35;15.40;;;22.40;69.50;;;;;;6096727;28;89035;-68
2022/03/29 12:06:48;;;;;;;28.42;15.02;;;22.30;68.50;;;;;;6105071;28;89321;-68
2022/03/29 12:09:52;;;;;;;20.17;13.55;;;22.20;68.50;;;;;;6107577;28;89092;-69
2022/03/29 12:12:54;;;;;;;21.50;13.88;;;22.20;68.50;;;;;;6095075;28;89459;-68
2022/03/29 12:15:56;;;;;;;23.13;14.00;;;22.20;68.40;;;;;;6089628;28;89131;-68
2022/03/29 12:18:58;;;;;;;20.50;13.63;;;22.20;68.60;;;;;;6105120;28;88386;-69
2022/03/29 12:22:02;;;;;;;22.52;13.32;;;22.20;68.60;;;;;;6105752;28;88954;-69
2022/03/29 12:25:09;;;;;;;22.98;13.18;;;22.20;68.80;;;;;;6093867;28;87902;-69
2022/03/29 12:28:13;;;;;;;30.35;15.00;;;22.10;69.00;;;;;;6110946;28;90052;-68
2022/03/29 12:31:17;;;;;;;29.08;14.90;;;22.10;69.60;;;;;;6105010;28;88691;-68
2022/03/29 12:34:23;;;;;;;27.30;15.80;;;22.10;70.10;;;;;;6091072;28;87958;-68
2022/03/29 12:37:26;;;;;;;25.20;14.25;;;22.20;70.40;;;;;;6108782;28;87991;-69
2022/03/29 12:40:30;;;;;;;29.40;15.85;;;22.10;70.50;;;;;;6102557;28;89077;-69
2022/03/29 12:43:33;;;;;;;24.10;13.73;;;22.10;70.40;;;;;;6109171;28;89065;-68
2022/03/29 12:46:36;;;;;;;25.80;13.57;;;22.10;70.00;;;;;;6100218;28;89279;-68
2022/03/29 12:49:39;;;;;;;22.27;13.02;;;22.10;69.80;;;;;;6109117;28;88318;-69
2022/03/29 12:52:44;;;;;;;23.48;13.23;;;22.10;69.60;;;;;;6100832;28;87803;-69
2022/03/29 12:55:56;;;;;;;24.80;12.60;;;22.10;69.50;;;;;;6095943;28;89145;-69
2022/03/29 12:58:58;;;;;;;28.63;13.90;;;22.10;69.60;;;;;;6090358;28;90238;-69
2022/03/29 13:02:12;;;;;;;35.72;16.15;;;22.10;70.00;;;;;;6109194;28;89329;-69
2022/03/29 13:05:15;;;;;;;32.78;15.43;;;22.10;70.80;;;;;;6103472;28;89245;-68
2022/03/29 13:08:21;;;;;;;31.42;14.82;;;22.10;71.80;;;;;;6111377;28;89082;-69
2022/03/29 13:11:24;;;;;;;30.20;13.77;;;22.10;71.80;;;;;;6101267;28;89214;-68
2022/03/29 13:14:36;;;;;;;25.58;12.88;;;22.10;71.50;;;;;;6107148;28;88031;-68
2022/03/29 13:17:38;;;;;;;23.55;12.43;;;22.20;71.30;;;;;;6108943;28;89171;-68
2022/03/29 13:20:40;;;;;;;21.08;11.40;;;22.20;71.20;;;;;;6109947;28;87299;-69
2022/03/29 13:23:44;;;;;;;20.80;10.95;;;22.20;70.80;;;;;;6106905;28;89080;-69
2022/03/29 13:26:52;;;;;;;19.92;10.73;;;22.20;70.60;;;;;;6108779;28;88883;-69
2022/03/29 13:29:54;;;;;;;16.83;10.52;;;22.20;70.30;;;;;;6108227;28;90143;-68
2022/03/29 13:32:56;;;;;;;16.02;9.73;;;22.20;70.10;;;;;;6096459;28;89172;-69
2022/03/29 13:35:59;;;;;;;14.80;9.63;;;22.20;70.00;;;;;;6110518;28;89018;-69
2022/03/29 13:39:02;;;;;;;15.93;9.50;;;22.20;69.70;;;;;;6094267;28;89090;-69
2022/03/29 13:42:06;;;;;;;16.00;9.65;;;22.20;69.70;;;;;;6099384;28;88908;-69
2022/03/29 13:45:10;;;;;;;17.00;10.20;;;22.20;69.40;;;;;;6109240;28;89009;-69
2022/03/29 13:48:12;;;;;;;14.63;9.23;;;22.20;69.20;;;;;;6108218;28;89040;-69
2022/03/29 13:51:16;;;;;;;14.93;8.93;;;22.30;69.30;;;;;;6112057;28;88354;-69
2022/03/29 13:54:18;;;;;;;12.05;8.85;;;22.20;68.90;;;;;;6109975;28;89231;-69
2022/03/29 13:57:21;;;;;;;12.80;9.38;;;22.20;68.90;;;;;;6095649;28;87992;-69
2022/03/29 14:00:23;;;;;;;12.25;8.80;;;22.20;68.80;;;;;;6099483;28;90305;-69
2022/03/29 14:03:26;;;;;;;12.63;8.48;;;22.20;68.70;;;;;;6108286;28;89039;-68
2022/03/29 14:06:28;;;;;;;12.27;8.65;;;22.20;68.60;;;;;;6101589;28;89031;-68
2022/03/29 14:09:31;;;;;;;13.43;8.18;;;22.20;68.40;;;;;;6097809;28;88794;-69
2022/03/29 14:12:34;;;;;;;14.73;9.23;;;22.20;71.60;;;;;;6100609;28;89184;-69
2022/03/29 14:15:41;;;;;;;13.38;8.30;;;22.30;72.30;;;;;;6101353;28;89142;-68
2022/03/29 14:18:43;;;;;;;12.18;8.25;;;22.30;72.70;;;;;;6097972;28;88918;-69
2022/03/29 14:21:45;;;;;;;11.57;8.38;;;22.40;72.60;;;;;;6093961;28;88052;-69
2022/03/29 14:24:47;;;;;;;14.18;8.82;;;22.40;72.10;;;;;;6089961;28;88966;-69
2022/03/29 14:27:50;;;;;;;11.13;7.93;;;22.40;71.70;;;;;;6092233;28;89377;-69
2022/03/29 14:30:53;;;;;;;11.60;8.05;;;22.40;71.50;;;;;;6095704;28;89978;-69
2022/03/29 14:33:55;;;;;;;9.52;7.70;;;22.40;72.30;;;;;;6096445;28;88409;-69
2022/03/29 14:36:58;;;;;;;12.73;8.73;;;22.30;71.00;;;;;;6096050;28;89120;-69
2022/03/29 14:40:00;;;;;;;11.90;8.23;;;22.40;71.40;;;;;;6092735;28;87085;-69
2022/03/29 14:43:03;;;;;;;12.20;8.50;;;22.40;71.30;;;;;;6092506;28;89349;-69
2022/03/29 14:46:05;;;;;;;11.50;8.45;;;22.30;71.20;;;;;;6094026;28;89347;-69
2022/03/29 14:49:07;;;;;;;12.35;8.30;;;22.40;71.50;;;;;;6095474;28;87472;-69
2022/03/29 14:52:10;;;;;;;12.32;8.07;;;22.30;71.30;;;;;;6092820;28;87519;-69
2022/03/29 14:55:15;;;;;;;10.35;7.68;;;22.30;71.10;;;;;;6095525;28;89196;-69
2022/03/29 14:58:19;;;;;;;9.20;7.65;;;22.30;71.30;;;;;;6089297;28;87997;-69
2022/03/29 15:01:21;;;;;;;9.10;7.63;;;22.30;71.20;;;;;;6096399;28;90041;-69
2022/03/29 15:04:23;;;;;;;8.07;7.28;;;22.30;71.30;;;;;;6095958;28;89020;-69
2022/03/29 15:07:26;;;;;;;9.02;7.43;;;22.20;71.10;;;;;;6092793;28;89017;-69
2022/03/29 15:10:28;;;;;;;9.85;7.85;;;22.30;71.30;;;;;;6097461;28;89108;-69
2022/03/29 15:13:32;;;;;;;8.95;7.60;;;22.30;71.30;;;;;;6092769;28;89551;-69
2022/03/29 15:16:34;;;;;;;9.40;7.45;;;22.30;71.20;;;;;;6094366;28;89095;-69
2022/03/29 15:19:37;;;;;;;10.50;7.53;;;22.30;71.30;;;;;;6096877;28;89312;-69
2022/03/29 15:22:39;;;;;;;9.93;7.18;;;22.30;71.10;;;;;;6101673;28;88675;-68
2022/03/29 15:26:00;;;;;;;13.43;9.18;;;22.20;71.70;;;;;;6109448;28;89077;-70
2022/03/29 15:29:03;;;;;;;10.52;9.07;;;22.30;70.20;;;;;;6099882;28;89431;-70
2022/03/29 15:32:06;;;;;;;9.93;8.93;;;22.20;60.10;;;;;;6105804;28;88882;-70
2022/03/29 15:35:09;;;;;;;11.57;8.98;;;22.20;60.90;;;;;;6099387;28;89091;-70
2022/03/29 15:38:12;;;;;;;9.77;7.85;;;22.20;60.60;;;;;;6108314;28;89085;-70
2022/03/29 15:41:15;;;;;;;11.35;8.63;;;22.10;60.50;;;;;;6095256;28;89088;-70
2022/03/29 15:44:18;;;;;;;9.40;8.35;;;22.10;60.10;;;;;;6098828;28;87908;-71
2022/03/29 15:47:22;;;;;;;8.80;7.72;;;22.10;59.90;;;;;;6087189;28;89072;-70
2022/03/29 15:50:24;;;;;;;8.45;7.65;;;22.10;59.90;;;;;;6102104;28;89159;-70
2022/03/29 15:53:26;;;;;;;9.13;7.82;;;22.10;59.50;;;;;;6097345;28;88384;-71
2022/03/29 15:56:28;;;;;;;8.25;7.28;;;22.10;59.30;;;;;;6094073;28;89345;-70
2022/03/29 15:59:32;;;;;;;8.70;7.80;;;22.10;59.20;;;;;;6107001;28;88949;-71